Pallada — UDUI — position and weather

sailwx.info

Track history (hours):
 
Tides and Currents Weather Stations Pressure Air Temp Water Temp Dewpoint Dewpoint Depression Visibility Wind Speed Wind Dir Waves Ship Positions

Pallada

Last reported at 2016-May-16 06:27 UTC. Time now 2016-Jul-01 06:22 UTC.
Position N 31°22' E 121°36'.
Warning: this ship's position is 45 days out of date.

Length 109 m; draft 7 m.

Type: Sailing vessel. MMSI: 273815200.

Date/timePositionNaut miles runAvg speedWind from/ knotsBaromVisibWave heightAir tempDewpointWater temp
2016-May-16 06:27N 31°22' E 121°36'5 6.0
2016-May-16 05:33N 31°22' E 121°30'7 5.9
2016-May-16 04:28N 31°15' E 121°32'2 1.0
2016-May-16 02:15N 31°15' E 121°30'0 0.0
2016-May-16 01:27N 31°15' E 121°30'0 0.0
2016-May-16 00:27N 31°15' E 121°30'0 0.0
2016-May-15 23:26N 31°15' E 121°30'0 0.0
2016-May-15 21:14N 31°15' E 121°30'0 0.0
2016-May-15 20:26N 31°15' E 121°30'0 0.0
2016-May-15 18:26N 31°15' E 121°30'0 0.0
2016-May-15 17:32N 31°15' E 121°30'0 0.0
2016-May-15 16:32N 31°15' E 121°30'0 0.0
2016-May-15 15:26N 31°15' E 121°30'0 0.0
2016-May-15 14:32N 31°15' E 121°30'0 0.0
2016-May-15 13:14N 31°15' E 121°30'0 0.0
2016-May-15 12:26N 31°15' E 121°30'0 0.0
2016-May-15 11:32N 31°15' E 121°30'0 0.0
2016-May-15 08:29N 31°15' E 121°30'0 0.0
2016-May-15 07:29N 31°15' E 121°30'0 0.0
2016-May-15 06:14N 31°15' E 121°30'0 0.0
2016-May-15 04:14N 31°15' E 121°30'0 0.0
2016-May-15 03:26N 31°15' E 121°30'0 0.0
2016-May-15 00:32N 31°15' E 121°30'0 0.0
2016-May-14 14:26N 31°15' E 121°30'0 0.0
2016-May-14 13:26N 31°15' E 121°30'0 0.0
2016-May-14 12:14N 31°15' E 121°30'0 0.0
2016-May-14 09:20N 31°15' E 121°30'0 0.0
2016-May-14 03:32N 31°15' E 121°30'0 0.0
2016-May-14 02:20N 31°15' E 121°30'0 0.0
2016-May-14 01:32N 31°15' E 121°30'0 0.0
2016-May-14 00:32N 31°15' E 121°30'0 0.0
2016-May-13 23:26N 31°15' E 121°30'0 0.0
2016-May-13 22:14N 31°15' E 121°30'0 0.0
2016-May-13 21:23N 31°15' E 121°30'0 0.0
2016-May-13 20:32N 31°15' E 121°30'0 0.0
2016-May-13 17:23N 31°15' E 121°30'0 0.0
2016-May-13 16:14N 31°15' E 121°30'0 0.0
2016-May-13 15:26N 31°15' E 121°30'0 0.0
2016-May-13 14:20N 31°15' E 121°30'0 0.0
2016-May-13 13:32N 31°15' E 121°30'0 0.0
2016-May-13 12:32N 31°15' E 121°30'0 0.0
2016-May-13 11:32N 31°15' E 121°30'0 0.0
2016-May-13 10:32N 31°15' E 121°30'0 0.0
2016-May-13 08:26N 31°15' E 121°30'0 0.0
2016-May-13 06:32N 31°15' E 121°30'0 0.0
2016-May-13 03:32N 31°15' E 121°30'0 0.0
2016-May-13 02:32N 31°15' E 121°30'0 0.0
2016-May-13 01:14N 31°15' E 121°30'0 0.0
2016-May-13 00:32N 31°15' E 121°30'0 0.0
2016-May-12 23:32N 31°15' E 121°30'0 0.0
2016-May-12 21:20N 31°15' E 121°30'0 0.0
2016-May-12 20:20N 31°15' E 121°30'0 0.0
2016-May-12 19:26N 31°15' E 121°30'0 0.0
2016-May-12 18:26N 31°15' E 121°30'0 0.0
2016-May-12 17:11N 31°15' E 121°30'0 0.0
2016-May-12 16:32N 31°15' E 121°30'0 0.0
2016-May-12 15:29N 31°15' E 121°30'0 0.0
2016-May-12 14:29N 31°15' E 121°30'1 1.2
2016-May-12 13:32N 31°15' E 121°31'5 5.1
2016-May-12 12:33N 31°20' E 121°33'5 4.6
2016-May-12 11:33N 31°23' E 121°30'7 6.7
2016-May-12 10:33N 31°22' E 121°38'  
Track history (hours):
 
Tides and Currents Weather Stations Pressure Air Temp Water Temp Dewpoint Dewpoint Depression Visibility Wind Speed Wind Dir Waves Ship Positions

Pallada

Last reported at 2016-May-16 06:27 UTC. Time now 2016-Jul-01 06:22 UTC.
Position N 31°22' E 121°36'.
Warning: this ship's position is 45 days out of date.

Length 109 m; draft 7 m.

Type: Sailing vessel. MMSI: 273815200.

Date/timePositionNaut miles runAvg speedWind from/ knotsBaromVisibWave heightAir tempDewpointWater temp
2016-May-16 06:27N 31°22' E 121°36'5 6.0
2016-May-16 05:33N 31°22' E 121°30'7 5.9
2016-May-16 04:28N 31°15' E 121°32'2 1.0
2016-May-16 02:15N 31°15' E 121°30'0 0.0
2016-May-16 01:27N 31°15' E 121°30'0 0.0
2016-May-16 00:27N 31°15' E 121°30'0 0.0
2016-May-15 23:26N 31°15' E 121°30'0 0.0
2016-May-15 21:14N 31°15' E 121°30'0 0.0
2016-May-15 20:26N 31°15' E 121°30'0 0.0
2016-May-15 18:26N 31°15' E 121°30'0 0.0
2016-May-15 17:32N 31°15' E 121°30'0 0.0
2016-May-15 16:32N 31°15' E 121°30'0 0.0
2016-May-15 15:26N 31°15' E 121°30'0 0.0
2016-May-15 14:32N 31°15' E 121°30'0 0.0
2016-May-15 13:14N 31°15' E 121°30'0 0.0
2016-May-15 12:26N 31°15' E 121°30'0 0.0
2016-May-15 11:32N 31°15' E 121°30'0 0.0
2016-May-15 08:29N 31°15' E 121°30'0 0.0
2016-May-15 07:29N 31°15' E 121°30'0 0.0
2016-May-15 06:14N 31°15' E 121°30'0 0.0
2016-May-15 04:14N 31°15' E 121°30'0 0.0
2016-May-15 03:26N 31°15' E 121°30'0 0.0
2016-May-15 00:32N 31°15' E 121°30'0 0.0
2016-May-14 14:26N 31°15' E 121°30'0 0.0
2016-May-14 13:26N 31°15' E 121°30'0 0.0
2016-May-14 12:14N 31°15' E 121°30'0 0.0
2016-May-14 09:20N 31°15' E 121°30'0 0.0
2016-May-14 03:32N 31°15' E 121°30'0 0.0
2016-May-14 02:20N 31°15' E 121°30'0 0.0
2016-May-14 01:32N 31°15' E 121°30'0 0.0
2016-May-14 00:32N 31°15' E 121°30'0 0.0
2016-May-13 23:26N 31°15' E 121°30'0 0.0
2016-May-13 22:14N 31°15' E 121°30'0 0.0
2016-May-13 21:23N 31°15' E 121°30'0 0.0
2016-May-13 20:32N 31°15' E 121°30'0 0.0
2016-May-13 17:23N 31°15' E 121°30'0 0.0
2016-May-13 16:14N 31°15' E 121°30'0 0.0
2016-May-13 15:26N 31°15' E 121°30'0 0.0
2016-May-13 14:20N 31°15' E 121°30'0 0.0
2016-May-13 13:32N 31°15' E 121°30'0 0.0
2016-May-13 12:32N 31°15' E 121°30'0 0.0
2016-May-13 11:32N 31°15' E 121°30'0 0.0
2016-May-13 10:32N 31°15' E 121°30'0 0.0
2016-May-13 08:26N 31°15' E 121°30'0 0.0
2016-May-13 06:32N 31°15' E 121°30'0 0.0
2016-May-13 03:32N 31°15' E 121°30'0 0.0
2016-May-13 02:32N 31°15' E 121°30'0 0.0
2016-May-13 01:14N 31°15' E 121°30'0 0.0
2016-May-13 00:32N 31°15' E 121°30'0 0.0
2016-May-12 23:32N 31°15' E 121°30'0 0.0
2016-May-12 21:20N 31°15' E 121°30'0 0.0
2016-May-12 20:20N 31°15' E 121°30'0 0.0
2016-May-12 19:26N 31°15' E 121°30'0 0.0
2016-May-12 18:26N 31°15' E 121°30'0 0.0
2016-May-12 17:11N 31°15' E 121°30'0 0.0
2016-May-12 16:32N 31°15' E 121°30'0 0.0
2016-May-12 15:29N 31°15' E 121°30'0 0.0
2016-May-12 14:29N 31°15' E 121°30'1 1.2
2016-May-12 13:32N 31°15' E 121°31'5 5.1
2016-May-12 12:33N 31°20' E 121°33'5 4.6
2016-May-12 11:33N 31°23' E 121°30'7 6.7
2016-May-12 10:33N 31°22' E 121°38'  

Dump ship's entire track history